Asbury, Illinois
Current Conditions -  °F | °C
As of 12:15 PM on Thursday 23 Oct 2014 (Local Time) from KCUL Reporting Station
Clear Clear  
Wind Chill: 60°   Ceiling: Unl
Heat Index: 60°   Visibility: 10mi
Dew Point: 45°   Wind: 5mph
Humidity: 58%   Direction: 130°SE
Pressure: 30.22"   Gusts: NA
Location:  37.8866°N, 88.266°W
Report Text: KCUL 231715Z AUTO 13004KT 10SM CLR 16/07 A3022 RMK AO2 T01570074
Loading
Personal Weather Stations






























Interactive Weather Map
Tropical Storm Tracking
New forecast layout! Learn more

10-Day Weather Forecast

Advertisements
Track Severe Weather on mobile